Buoy 44845

sailwx.info

Track history (hours):
 
Tides and Currents Weather Stations Pressure Air Temp Water Temp Dewpoint Dewpoint Depression Visibility Wind Speed Wind Dir Waves Ship Positions

Drifting buoy 44845

Last reported at 2016-Sep-30 19:01 UTC. Time now 2016-Sep-30 20:22 UTC.
Position N 73°24' E 023°34'.

Date/timePositionNaut miles runAvg speedWind from/ knotsBaromVisibWave heightAir tempDewpointWater temp
2016-Sep-30 19:01N 73°24' E 023°34'0 0.4
2016-Sep-30 18:01N 73°24' E 023°35'0 0.3
2016-Sep-30 17:01N 73°24' E 023°36'0 0.3
2016-Sep-30 16:01N 73°23' E 023°37'0 0.2
2016-Sep-30 15:01N 73°23' E 023°38'0 0.1
2016-Sep-30 14:01N 73°24' E 023°38'0 0.1
2016-Sep-30 13:01N 73°24' E 023°38'0 0.1
2016-Sep-30 12:01N 73°24' E 023°38'0 0.2
2016-Sep-30 11:01N 73°24' E 023°39'0 0.2
2016-Sep-30 10:01N 73°24' E 023°39'0 0.3
2016-Sep-30 09:01N 73°24' E 023°40'0 0.4
2016-Sep-30 08:01N 73°23' E 023°42'0 0.5
2016-Sep-30 07:01N 73°23' E 023°43'1 0.5
2016-Sep-30 06:01N 73°23' E 023°45'0 0.5
2016-Sep-30 05:01N 73°23' E 023°46'0 0.3
2016-Sep-30 04:01N 73°23' E 023°47'0 0.2
2016-Sep-30 03:01N 73°22' E 023°47'0 0.2
2016-Sep-30 02:01N 73°22' E 023°47'0 0.2
2016-Sep-30 01:01N 73°22' E 023°47'0 0.2
2016-Sep-30 00:01N 73°22' E 023°46'0 0.2
2016-Sep-29 23:01N 73°22' E 023°46'0 0.2
2016-Sep-29 22:01N 73°22' E 023°46'0 0.3
2016-Sep-29 21:01N 73°21' E 023°46'0 0.3
2016-Sep-29 20:01N 73°21' E 023°46'0 0.4
2016-Sep-29 19:01N 73°21' E 023°47'0 0.3
2016-Sep-29 18:01N 73°20' E 023°48'1 0.7
2016-Sep-29 17:01N 73°20' E 023°48'0 0.0
2016-Sep-29 16:01N 73°20' E 023°48'0 0.4
2016-Sep-29 15:01N 73°19' E 023°47'0 0.4
2016-Sep-29 14:01N 73°19' E 023°47'0 0.4
2016-Sep-29 13:01N 73°19' E 023°46'0 0.4
2016-Sep-29 12:01N 73°18' E 023°45'0 0.4
2016-Sep-29 11:01N 73°18' E 023°45'0 0.3
2016-Sep-29 10:01N 73°18' E 023°44'0 0.4
2016-Sep-29 09:01N 73°17' E 023°44'0 0.4
2016-Sep-29 08:01N 73°17' E 023°44'0 0.4
2016-Sep-29 07:01N 73°16' E 023°44'0 0.4
2016-Sep-29 06:01N 73°16' E 023°44'0 0.5
2016-Sep-29 05:01N 73°16' E 023°44'1 0.5
2016-Sep-29 04:01N 73°15' E 023°45'1 0.5
2016-Sep-29 03:01N 73°14' E 023°44'0 0.5
2016-Sep-29 02:01N 73°14' E 023°44'0 0.4
2016-Sep-29 01:01N 73°14' E 023°44'0 0.3
2016-Sep-29 00:01N 73°13' E 023°43'0 0.4
2016-Sep-28 23:01N 73°13' E 023°43'0 0.3
2016-Sep-28 22:01N 73°13' E 023°42'0 0.3
2016-Sep-28 21:01N 73°12' E 023°42'0 0.3
2016-Sep-28 20:01N 73°12' E 023°43'0 0.3
2016-Sep-28 19:01N 73°12' E 023°43'0 0.3
2016-Sep-28 18:01N 73°12' E 023°44'0 0.3
2016-Sep-28 17:01N 73°11' E 023°45'0 0.2
2016-Sep-28 16:01N 73°11' E 023°46'0 0.2
2016-Sep-28 15:01N 73°11' E 023°46'0 0.1
2016-Sep-28 14:01N 73°11' E 023°47'0 0.1
2016-Sep-28 13:01N 73°11' E 023°47'0 0.1
2016-Sep-28 12:01N 73°11' E 023°47'0 0.1
2016-Sep-28 11:01N 73°11' E 023°47'0 0.2
2016-Sep-28 10:01N 73°11' E 023°48'0 0.2
2016-Sep-28 09:01N 73°11' E 023°48'1 0.3
2016-Sep-28 06:01N 73°11' E 023°51'0 0.2
2016-Sep-28 05:01N 73°11' E 023°52'0 0.1
2016-Sep-28 04:01N 73°11' E 023°52'0 0.1
2016-Sep-28 03:01N 73°11' E 023°52'0 0.1
2016-Sep-28 02:01N 73°11' E 023°52'0 0.1
2016-Sep-28 01:01N 73°10' E 023°52'0 0.2
2016-Sep-28 00:01N 73°10' E 023°52'0 0.1
2016-Sep-27 23:01N 73°10' E 023°51'0 0.3
2016-Sep-27 22:01N 73°10' E 023°52'0 0.3
2016-Sep-27 21:01N 73°10' E 023°52'0 0.4
2016-Sep-27 20:01N 73°09' E 023°52'0 0.4
2016-Sep-27 19:01N 73°09' E 023°53'0 0.4
2016-Sep-27 18:01N 73°09' E 023°54'0 0.4
2016-Sep-27 17:01N 73°08' E 023°55'0 0.2
2016-Sep-27 16:01N 73°08' E 023°55'0 0.1
2016-Sep-27 15:01N 73°08' E 023°55'0 0.3
2016-Sep-27 14:01N 73°08' E 023°55'1 0.4
2016-Sep-27 12:01N 73°07' E 023°53'0 0.4
2016-Sep-27 11:01N 73°07' E 023°52'0 0.4
2016-Sep-27 10:01N 73°07' E 023°51'0 0.2
2016-Sep-27 09:01N 73°07' E 023°51'0 0.2
2016-Sep-27 08:01N 73°06' E 023°50'0 0.2
2016-Sep-27 07:01N 73°06' E 023°50'0 0.1
2016-Sep-27 06:01N 73°06' E 023°50'0 0.0
2016-Sep-27 05:01N 73°06' E 023°50'0 0.0
2016-Sep-27 04:01N 73°06' E 023°50'0 0.1
2016-Sep-27 03:01N 73°06' E 023°49'0 0.3
2016-Sep-27 02:01N 73°06' E 023°49'0 0.2
2016-Sep-27 00:01N 73°06' E 023°47'0 0.1
2016-Sep-26 23:01N 73°06' E 023°47'0 0.2
2016-Sep-26 22:01N 73°06' E 023°47'0 0.2
2016-Sep-26 21:01N 73°06' E 023°47'0 0.2
2016-Sep-26 20:01N 73°05' E 023°48'0 0.2
2016-Sep-26 19:01N 73°05' E 023°48'0 0.3
2016-Sep-26 18:01N 73°05' E 023°49'0 0.3
2016-Sep-26 17:01N 73°05' E 023°50'0 0.3
2016-Sep-26 16:01N 73°05' E 023°50'1 0.3
2016-Sep-26 14:01N 73°04' E 023°51'0 0.3
2016-Sep-26 13:01N 73°04' E 023°52'0 0.3
2016-Sep-26 12:01N 73°04' E 023°52'0 0.4
2016-Sep-26 11:01N 73°03' E 023°52'0 0.4
2016-Sep-26 10:01N 73°03' E 023°52'0 0.4
2016-Sep-26 09:01N 73°02' E 023°53'0 0.3
2016-Sep-26 08:01N 73°02' E 023°54'0 0.3
2016-Sep-26 07:01N 73°02' E 023°55'0 0.4
2016-Sep-26 06:01N 73°02' E 023°56'0 0.4
2016-Sep-26 05:01N 73°02' E 023°57'0 0.4
2016-Sep-26 04:01N 73°02' E 023°59'0 0.4
2016-Sep-26 03:01N 73°02' E 024°00'0 0.3
2016-Sep-26 02:01N 73°02' E 024°01'0 0.2
2016-Sep-26 01:01N 73°02' E 024°01'0 0.2
2016-Sep-26 00:01N 73°01' E 024°02'0 0.0
2016-Sep-25 23:01N 73°01' E 024°02'0 0.0
2016-Sep-25 22:01N 73°01' E 024°02'0 0.1
2016-Sep-25 21:01N 73°02' E 024°02'0 0.1
2016-Sep-25 19:01N 73°01' E 024°01'0 0.1
2016-Sep-25 18:01N 73°01' E 024°01'0 0.3
2016-Sep-25 17:01N 73°02' E 024°02'0 0.3
2016-Sep-25 16:01N 73°01' E 024°03'0 0.3
2016-Sep-25 15:01N 73°01' E 024°04'0 0.4
2016-Sep-25 14:01N 73°01' E 024°06'0 0.3
2016-Sep-25 13:01N 73°02' E 024°07'0 0.3
2016-Sep-25 12:01N 73°02' E 024°08'0 0.3
2016-Sep-25 11:01N 73°02' E 024°08'0 0.1
2016-Sep-25 10:01N 73°02' E 024°08'0 0.1
2016-Sep-25 09:01N 73°02' E 024°07'0 0.1
2016-Sep-25 08:01N 73°02' E 024°07'0 0.1
2016-Sep-25 07:01N 73°02' E 024°07'0 0.2
2016-Sep-25 06:01N 73°02' E 024°07'0 0.3
2016-Sep-25 05:01N 73°02' E 024°08'0 0.3
2016-Sep-25 04:01N 73°01' E 024°09'0 0.4
2016-Sep-25 03:01N 73°01' E 024°11'0 0.3
2016-Sep-25 02:01N 73°01' E 024°12'0 0.3
2016-Sep-25 01:01N 73°01' E 024°13'0 0.3
2016-Sep-25 00:01N 73°01' E 024°13'0 0.2
2016-Sep-24 23:01N 73°01' E 024°14'0 0.1
2016-Sep-24 22:01N 73°01' E 024°14'0 0.2
2016-Sep-24 21:01N 73°01' E 024°14'0 0.2
2016-Sep-24 20:01N 73°00' E 024°14'0 0.2
2016-Sep-24 19:01N 73°00' E 024°13'0 0.3
2016-Sep-24 18:01N 72°60' E 024°14'0 0.3
2016-Sep-24 17:01N 72°60' E 024°14'0 0.4
2016-Sep-24 16:01N 72°59' E 024°15'0 0.4
2016-Sep-24 15:01N 72°59' E 024°15'0 0.4
2016-Sep-24 14:01N 72°59' E 024°16'1 0.4
2016-Sep-24 12:01N 72°58' E 024°19'0 0.4
2016-Sep-24 11:01N 72°58' E 024°20'1 0.5
2016-Sep-24 10:01N 72°57' E 024°21'0 0.4
2016-Sep-24 09:01N 72°57' E 024°22'0 0.3
2016-Sep-24 08:01N 72°57' E 024°22'0 0.3
2016-Sep-24 07:01N 72°57' E 024°23'0 0.3
2016-Sep-24 06:01N 72°57' E 024°24'0 0.3
2016-Sep-24 05:01N 72°56' E 024°25'0 0.5
2016-Sep-24 04:01N 72°56' E 024°27'1 0.6
2016-Sep-24 03:01N 72°56' E 024°28'1 0.6
2016-Sep-24 02:01N 72°55' E 024°30'1 0.6
2016-Sep-24 01:01N 72°55' E 024°32'1 0.6
2016-Sep-24 00:01N 72°55' E 024°34'1 0.5
2016-Sep-23 23:01N 72°55' E 024°36'0 0.4
2016-Sep-23 22:01N 72°54' E 024°37'1 0.3
2016-Sep-23 20:01N 72°54' E 024°36'0 0.5
2016-Sep-23 19:01N 72°54' E 024°34'0 0.5
2016-Sep-23 18:01N 72°53' E 024°33'0 0.5
2016-Sep-23 17:01N 72°53' E 024°33'0 0.4
2016-Sep-23 16:01N 72°52' E 024°33'0 0.4
2016-Sep-23 15:01N 72°52' E 024°33'0 0.3
2016-Sep-23 14:01N 72°52' E 024°34'0 0.4
2016-Sep-23 13:01N 72°51' E 024°35'0 0.4
2016-Sep-23 12:01N 72°51' E 024°36'0 0.3
2016-Sep-23 11:01N 72°51' E 024°37'0 0.4
2016-Sep-23 10:01N 72°51' E 024°37'0 0.2
2016-Sep-23 08:01N 72°50' E 024°37'0 0.3
2016-Sep-23 07:01N 72°50' E 024°36'0 0.4
2016-Sep-23 06:01N 72°50' E 024°35'0 0.4
2016-Sep-23 05:01N 72°49' E 024°34'0 0.4
2016-Sep-23 04:01N 72°49' E 024°33'0 0.4
2016-Sep-23 03:01N 72°49' E 024°32'0 0.4
2016-Sep-23 02:01N 72°49' E 024°31'0 0.4
2016-Sep-23 01:01N 72°49' E 024°30'0 0.4
2016-Sep-23 00:01N 72°48' E 024°29'0 0.5
2016-Sep-22 23:01N 72°48' E 024°28'0 0.3
2016-Sep-22 22:01N 72°48' E 024°27'0 0.4
2016-Sep-22 21:01N 72°48' E 024°26'1 0.7
2016-Sep-22 20:01N 72°47' E 024°24'1 0.7
2016-Sep-22 19:01N 72°48' E 024°21'1 0.8
2016-Sep-22 18:01N 72°48' E 024°19'1 0.8
2016-Sep-22 17:01N 72°48' E 024°16'1 0.8
2016-Sep-22 16:01N 72°48' E 024°13'1 0.6
2016-Sep-22 14:01N 72°48' E 024°09'1 0.3
2016-Sep-22 12:01N 72°48' E 024°07'0 0.2
2016-Sep-22 10:01N 72°48' E 024°06'1 0.5
2016-Sep-22 08:01N 72°48' E 024°03'1 0.7
2016-Sep-22 07:01N 72°48' E 024°00'1 0.8
2016-Sep-22 06:01N 72°48' E 023°58'1 0.8
2016-Sep-22 05:01N 72°48' E 023°55'1 0.8
2016-Sep-22 04:01N 72°48' E 023°52'1 0.6
2016-Sep-22 02:01N 72°48' E 023°48'0 0.4
2016-Sep-22 01:01N 72°48' E 023°47'0 0.4
2016-Sep-22 00:01N 72°47' E 023°46'0 0.4
2016-Sep-21 23:01N 72°47' E 023°46'0 0.4
2016-Sep-21 22:01N 72°47' E 023°46'0 0.3
2016-Sep-21 21:01N 72°46' E 023°46'0 0.3
2016-Sep-21 20:01N 72°46' E 023°46'0 0.3
2016-Sep-21 19:01N 72°46' E 023°45'0 0.4
2016-Sep-21 18:01N 72°46' E 023°44'1 0.5
2016-Sep-21 17:01N 72°46' E 023°42'1 0.7
2016-Sep-21 16:01N 72°46' E 023°39'1 0.7
2016-Sep-21 15:01N 72°45' E 023°37'1 0.6
2016-Sep-21 14:01N 72°45' E 023°35'1 0.6
2016-Sep-21 13:01N 72°45' E 023°33'1 0.5
2016-Sep-21 12:01N 72°44' E 023°32'0 0.5
2016-Sep-21 11:01N 72°44' E 023°32'0 0.5
2016-Sep-21 10:01N 72°43' E 023°32'0 0.4
2016-Sep-21 09:01N 72°43' E 023°33'0 0.3
2016-Sep-21 08:01N 72°43' E 023°33'0 0.3
2016-Sep-21 07:01N 72°43' E 023°32'0 0.4
2016-Sep-21 06:01N 72°42' E 023°31'1 0.6
2016-Sep-21 05:01N 72°42' E 023°29'1 0.7
2016-Sep-21 04:01N 72°42' E 023°27'1 0.7
2016-Sep-21 02:01N 72°41' E 023°24'1 0.6
2016-Sep-21 01:01N 72°40' E 023°23'0 0.4
2016-Sep-21 00:01N 72°40' E 023°23'0 0.4
2016-Sep-20 23:01N 72°40' E 023°23'0 0.3
2016-Sep-20 22:01N 72°39' E 023°24'0 0.2
2016-Sep-20 21:01N 72°39' E 023°24'0 0.1
2016-Sep-20 20:01N 72°39' E 023°25'0 0.2
2016-Sep-20 19:01N 72°39' E 023°24'  
Track history (hours):
 
Tides and Currents Weather Stations Pressure Air Temp Water Temp Dewpoint Dewpoint Depression Visibility Wind Speed Wind Dir Waves Ship Positions

Drifting buoy 44845

Last reported at 2016-Sep-30 19:01 UTC. Time now 2016-Sep-30 20:22 UTC.
Position N 73°24' E 023°34'.

Date/timePositionNaut miles runAvg speedWind from/ knotsBaromVisibWave heightAir tempDewpointWater temp
2016-Sep-30 19:01N 73°24' E 023°34'0 0.4
2016-Sep-30 18:01N 73°24' E 023°35'0 0.3
2016-Sep-30 17:01N 73°24' E 023°36'0 0.3
2016-Sep-30 16:01N 73°23' E 023°37'0 0.2
2016-Sep-30 15:01N 73°23' E 023°38'0 0.1
2016-Sep-30 14:01N 73°24' E 023°38'0 0.1
2016-Sep-30 13:01N 73°24' E 023°38'0 0.1
2016-Sep-30 12:01N 73°24' E 023°38'0 0.2
2016-Sep-30 11:01N 73°24' E 023°39'0 0.2
2016-Sep-30 10:01N 73°24' E 023°39'0 0.3
2016-Sep-30 09:01N 73°24' E 023°40'0 0.4
2016-Sep-30 08:01N 73°23' E 023°42'0 0.5
2016-Sep-30 07:01N 73°23' E 023°43'1 0.5
2016-Sep-30 06:01N 73°23' E 023°45'0 0.5
2016-Sep-30 05:01N 73°23' E 023°46'0 0.3
2016-Sep-30 04:01N 73°23' E 023°47'0 0.2
2016-Sep-30 03:01N 73°22' E 023°47'0 0.2
2016-Sep-30 02:01N 73°22' E 023°47'0 0.2
2016-Sep-30 01:01N 73°22' E 023°47'0 0.2
2016-Sep-30 00:01N 73°22' E 023°46'0 0.2
2016-Sep-29 23:01N 73°22' E 023°46'0 0.2
2016-Sep-29 22:01N 73°22' E 023°46'0 0.3
2016-Sep-29 21:01N 73°21' E 023°46'0 0.3
2016-Sep-29 20:01N 73°21' E 023°46'0 0.4
2016-Sep-29 19:01N 73°21' E 023°47'0 0.3
2016-Sep-29 18:01N 73°20' E 023°48'1 0.7
2016-Sep-29 17:01N 73°20' E 023°48'0 0.0
2016-Sep-29 16:01N 73°20' E 023°48'0 0.4
2016-Sep-29 15:01N 73°19' E 023°47'0 0.4
2016-Sep-29 14:01N 73°19' E 023°47'0 0.4
2016-Sep-29 13:01N 73°19' E 023°46'0 0.4
2016-Sep-29 12:01N 73°18' E 023°45'0 0.4
2016-Sep-29 11:01N 73°18' E 023°45'0 0.3
2016-Sep-29 10:01N 73°18' E 023°44'0 0.4
2016-Sep-29 09:01N 73°17' E 023°44'0 0.4
2016-Sep-29 08:01N 73°17' E 023°44'0 0.4
2016-Sep-29 07:01N 73°16' E 023°44'0 0.4
2016-Sep-29 06:01N 73°16' E 023°44'0 0.5
2016-Sep-29 05:01N 73°16' E 023°44'1 0.5
2016-Sep-29 04:01N 73°15' E 023°45'1 0.5
2016-Sep-29 03:01N 73°14' E 023°44'0 0.5
2016-Sep-29 02:01N 73°14' E 023°44'0 0.4
2016-Sep-29 01:01N 73°14' E 023°44'0 0.3
2016-Sep-29 00:01N 73°13' E 023°43'0 0.4
2016-Sep-28 23:01N 73°13' E 023°43'0 0.3
2016-Sep-28 22:01N 73°13' E 023°42'0 0.3
2016-Sep-28 21:01N 73°12' E 023°42'0 0.3
2016-Sep-28 20:01N 73°12' E 023°43'0 0.3
2016-Sep-28 19:01N 73°12' E 023°43'0 0.3
2016-Sep-28 18:01N 73°12' E 023°44'0 0.3
2016-Sep-28 17:01N 73°11' E 023°45'0 0.2
2016-Sep-28 16:01N 73°11' E 023°46'0 0.2
2016-Sep-28 15:01N 73°11' E 023°46'0 0.1
2016-Sep-28 14:01N 73°11' E 023°47'0 0.1
2016-Sep-28 13:01N 73°11' E 023°47'0 0.1
2016-Sep-28 12:01N 73°11' E 023°47'0 0.1
2016-Sep-28 11:01N 73°11' E 023°47'0 0.2
2016-Sep-28 10:01N 73°11' E 023°48'0 0.2
2016-Sep-28 09:01N 73°11' E 023°48'1 0.3
2016-Sep-28 06:01N 73°11' E 023°51'0 0.2
2016-Sep-28 05:01N 73°11' E 023°52'0 0.1
2016-Sep-28 04:01N 73°11' E 023°52'0 0.1
2016-Sep-28 03:01N 73°11' E 023°52'0 0.1
2016-Sep-28 02:01N 73°11' E 023°52'0 0.1
2016-Sep-28 01:01N 73°10' E 023°52'0 0.2
2016-Sep-28 00:01N 73°10' E 023°52'0 0.1
2016-Sep-27 23:01N 73°10' E 023°51'0 0.3
2016-Sep-27 22:01N 73°10' E 023°52'0 0.3
2016-Sep-27 21:01N 73°10' E 023°52'0 0.4
2016-Sep-27 20:01N 73°09' E 023°52'0 0.4
2016-Sep-27 19:01N 73°09' E 023°53'0 0.4
2016-Sep-27 18:01N 73°09' E 023°54'0 0.4
2016-Sep-27 17:01N 73°08' E 023°55'0 0.2
2016-Sep-27 16:01N 73°08' E 023°55'0 0.1
2016-Sep-27 15:01N 73°08' E 023°55'0 0.3
2016-Sep-27 14:01N 73°08' E 023°55'1 0.4
2016-Sep-27 12:01N 73°07' E 023°53'0 0.4
2016-Sep-27 11:01N 73°07' E 023°52'0 0.4
2016-Sep-27 10:01N 73°07' E 023°51'0 0.2
2016-Sep-27 09:01N 73°07' E 023°51'0 0.2
2016-Sep-27 08:01N 73°06' E 023°50'0 0.2
2016-Sep-27 07:01N 73°06' E 023°50'0 0.1
2016-Sep-27 06:01N 73°06' E 023°50'0 0.0
2016-Sep-27 05:01N 73°06' E 023°50'0 0.0
2016-Sep-27 04:01N 73°06' E 023°50'0 0.1
2016-Sep-27 03:01N 73°06' E 023°49'0 0.3
2016-Sep-27 02:01N 73°06' E 023°49'0 0.2
2016-Sep-27 00:01N 73°06' E 023°47'0 0.1
2016-Sep-26 23:01N 73°06' E 023°47'0 0.2
2016-Sep-26 22:01N 73°06' E 023°47'0 0.2
2016-Sep-26 21:01N 73°06' E 023°47'0 0.2
2016-Sep-26 20:01N 73°05' E 023°48'0 0.2
2016-Sep-26 19:01N 73°05' E 023°48'0 0.3
2016-Sep-26 18:01N 73°05' E 023°49'0 0.3
2016-Sep-26 17:01N 73°05' E 023°50'0 0.3
2016-Sep-26 16:01N 73°05' E 023°50'1 0.3
2016-Sep-26 14:01N 73°04' E 023°51'0 0.3
2016-Sep-26 13:01N 73°04' E 023°52'0 0.3
2016-Sep-26 12:01N 73°04' E 023°52'0 0.4
2016-Sep-26 11:01N 73°03' E 023°52'0 0.4
2016-Sep-26 10:01N 73°03' E 023°52'0 0.4
2016-Sep-26 09:01N 73°02' E 023°53'0 0.3
2016-Sep-26 08:01N 73°02' E 023°54'0 0.3
2016-Sep-26 07:01N 73°02' E 023°55'0 0.4
2016-Sep-26 06:01N 73°02' E 023°56'0 0.4
2016-Sep-26 05:01N 73°02' E 023°57'0 0.4
2016-Sep-26 04:01N 73°02' E 023°59'0 0.4
2016-Sep-26 03:01N 73°02' E 024°00'0 0.3
2016-Sep-26 02:01N 73°02' E 024°01'0 0.2
2016-Sep-26 01:01N 73°02' E 024°01'0 0.2
2016-Sep-26 00:01N 73°01' E 024°02'0 0.0
2016-Sep-25 23:01N 73°01' E 024°02'0 0.0
2016-Sep-25 22:01N 73°01' E 024°02'0 0.1
2016-Sep-25 21:01N 73°02' E 024°02'0 0.1
2016-Sep-25 19:01N 73°01' E 024°01'0 0.1
2016-Sep-25 18:01N 73°01' E 024°01'0 0.3
2016-Sep-25 17:01N 73°02' E 024°02'0 0.3
2016-Sep-25 16:01N 73°01' E 024°03'0 0.3
2016-Sep-25 15:01N 73°01' E 024°04'0 0.4
2016-Sep-25 14:01N 73°01' E 024°06'0 0.3
2016-Sep-25 13:01N 73°02' E 024°07'0 0.3
2016-Sep-25 12:01N 73°02' E 024°08'0 0.3
2016-Sep-25 11:01N 73°02' E 024°08'0 0.1
2016-Sep-25 10:01N 73°02' E 024°08'0 0.1
2016-Sep-25 09:01N 73°02' E 024°07'0 0.1
2016-Sep-25 08:01N 73°02' E 024°07'0 0.1
2016-Sep-25 07:01N 73°02' E 024°07'0 0.2
2016-Sep-25 06:01N 73°02' E 024°07'0 0.3
2016-Sep-25 05:01N 73°02' E 024°08'0 0.3
2016-Sep-25 04:01N 73°01' E 024°09'0 0.4
2016-Sep-25 03:01N 73°01' E 024°11'0 0.3
2016-Sep-25 02:01N 73°01' E 024°12'0 0.3
2016-Sep-25 01:01N 73°01' E 024°13'0 0.3
2016-Sep-25 00:01N 73°01' E 024°13'0 0.2
2016-Sep-24 23:01N 73°01' E 024°14'0 0.1
2016-Sep-24 22:01N 73°01' E 024°14'0 0.2
2016-Sep-24 21:01N 73°01' E 024°14'0 0.2
2016-Sep-24 20:01N 73°00' E 024°14'0 0.2
2016-Sep-24 19:01N 73°00' E 024°13'0 0.3
2016-Sep-24 18:01N 72°60' E 024°14'0 0.3
2016-Sep-24 17:01N 72°60' E 024°14'0 0.4
2016-Sep-24 16:01N 72°59' E 024°15'0 0.4
2016-Sep-24 15:01N 72°59' E 024°15'0 0.4
2016-Sep-24 14:01N 72°59' E 024°16'1 0.4
2016-Sep-24 12:01N 72°58' E 024°19'0 0.4
2016-Sep-24 11:01N 72°58' E 024°20'1 0.5
2016-Sep-24 10:01N 72°57' E 024°21'0 0.4
2016-Sep-24 09:01N 72°57' E 024°22'0 0.3
2016-Sep-24 08:01N 72°57' E 024°22'0 0.3
2016-Sep-24 07:01N 72°57' E 024°23'0 0.3
2016-Sep-24 06:01N 72°57' E 024°24'0 0.3
2016-Sep-24 05:01N 72°56' E 024°25'0 0.5
2016-Sep-24 04:01N 72°56' E 024°27'1 0.6
2016-Sep-24 03:01N 72°56' E 024°28'1 0.6
2016-Sep-24 02:01N 72°55' E 024°30'1 0.6
2016-Sep-24 01:01N 72°55' E 024°32'1 0.6
2016-Sep-24 00:01N 72°55' E 024°34'1 0.5
2016-Sep-23 23:01N 72°55' E 024°36'0 0.4
2016-Sep-23 22:01N 72°54' E 024°37'1 0.3
2016-Sep-23 20:01N 72°54' E 024°36'0 0.5
2016-Sep-23 19:01N 72°54' E 024°34'0 0.5
2016-Sep-23 18:01N 72°53' E 024°33'0 0.5
2016-Sep-23 17:01N 72°53' E 024°33'0 0.4
2016-Sep-23 16:01N 72°52' E 024°33'0 0.4
2016-Sep-23 15:01N 72°52' E 024°33'0 0.3
2016-Sep-23 14:01N 72°52' E 024°34'0 0.4
2016-Sep-23 13:01N 72°51' E 024°35'0 0.4
2016-Sep-23 12:01N 72°51' E 024°36'0 0.3
2016-Sep-23 11:01N 72°51' E 024°37'0 0.4
2016-Sep-23 10:01N 72°51' E 024°37'0 0.2
2016-Sep-23 08:01N 72°50' E 024°37'0 0.3
2016-Sep-23 07:01N 72°50' E 024°36'0 0.4
2016-Sep-23 06:01N 72°50' E 024°35'0 0.4
2016-Sep-23 05:01N 72°49' E 024°34'0 0.4
2016-Sep-23 04:01N 72°49' E 024°33'0 0.4
2016-Sep-23 03:01N 72°49' E 024°32'0 0.4
2016-Sep-23 02:01N 72°49' E 024°31'0 0.4
2016-Sep-23 01:01N 72°49' E 024°30'0 0.4
2016-Sep-23 00:01N 72°48' E 024°29'0 0.5
2016-Sep-22 23:01N 72°48' E 024°28'0 0.3
2016-Sep-22 22:01N 72°48' E 024°27'0 0.4
2016-Sep-22 21:01N 72°48' E 024°26'1 0.7
2016-Sep-22 20:01N 72°47' E 024°24'1 0.7
2016-Sep-22 19:01N 72°48' E 024°21'1 0.8
2016-Sep-22 18:01N 72°48' E 024°19'1 0.8
2016-Sep-22 17:01N 72°48' E 024°16'1 0.8
2016-Sep-22 16:01N 72°48' E 024°13'1 0.6
2016-Sep-22 14:01N 72°48' E 024°09'1 0.3
2016-Sep-22 12:01N 72°48' E 024°07'0 0.2
2016-Sep-22 10:01N 72°48' E 024°06'1 0.5
2016-Sep-22 08:01N 72°48' E 024°03'1 0.7
2016-Sep-22 07:01N 72°48' E 024°00'1 0.8
2016-Sep-22 06:01N 72°48' E 023°58'1 0.8
2016-Sep-22 05:01N 72°48' E 023°55'1 0.8
2016-Sep-22 04:01N 72°48' E 023°52'1 0.6
2016-Sep-22 02:01N 72°48' E 023°48'0 0.4
2016-Sep-22 01:01N 72°48' E 023°47'0 0.4
2016-Sep-22 00:01N 72°47' E 023°46'0 0.4
2016-Sep-21 23:01N 72°47' E 023°46'0 0.4
2016-Sep-21 22:01N 72°47' E 023°46'0 0.3
2016-Sep-21 21:01N 72°46' E 023°46'0 0.3
2016-Sep-21 20:01N 72°46' E 023°46'0 0.3
2016-Sep-21 19:01N 72°46' E 023°45'0 0.4
2016-Sep-21 18:01N 72°46' E 023°44'1 0.5
2016-Sep-21 17:01N 72°46' E 023°42'1 0.7
2016-Sep-21 16:01N 72°46' E 023°39'1 0.7
2016-Sep-21 15:01N 72°45' E 023°37'1 0.6
2016-Sep-21 14:01N 72°45' E 023°35'1 0.6
2016-Sep-21 13:01N 72°45' E 023°33'1 0.5
2016-Sep-21 12:01N 72°44' E 023°32'0 0.5
2016-Sep-21 11:01N 72°44' E 023°32'0 0.5
2016-Sep-21 10:01N 72°43' E 023°32'0 0.4
2016-Sep-21 09:01N 72°43' E 023°33'0 0.3
2016-Sep-21 08:01N 72°43' E 023°33'0 0.3
2016-Sep-21 07:01N 72°43' E 023°32'0 0.4
2016-Sep-21 06:01N 72°42' E 023°31'1 0.6
2016-Sep-21 05:01N 72°42' E 023°29'1 0.7
2016-Sep-21 04:01N 72°42' E 023°27'1 0.7
2016-Sep-21 02:01N 72°41' E 023°24'1 0.6
2016-Sep-21 01:01N 72°40' E 023°23'0 0.4
2016-Sep-21 00:01N 72°40' E 023°23'0 0.4
2016-Sep-20 23:01N 72°40' E 023°23'0 0.3
2016-Sep-20 22:01N 72°39' E 023°24'0 0.2
2016-Sep-20 21:01N 72°39' E 023°24'0 0.1
2016-Sep-20 20:01N 72°39' E 023°25'0 0.2
2016-Sep-20 19:01N 72°39' E 023°24'  

Dump ship's entire track history